Time;durP1;ratioP1;P1;durP2;ratioP2;P2;SDS_P1;SDS_P2;PMS_P1;PMS_P2;Temp;Humidity;BMP_temperature;BMP_pressure;BME280_temperature;BME280_humidity;BME280_pressure;Samples;Min_cycle;Max_cycle;Signal;HPM_P1;HPM_P2
2022/01/21 00:01:21;;;;;;;7.80;2.58;;;;;;;-2.90;78.33;100292.75;2032355;86;21102;-75
2022/01/21 00:04:26;;;;;;;5.37;2.33;;;;;;;-2.94;78.23;100295.50;2030827;85;21096;-75
2022/01/21 00:07:29;;;;;;;6.83;2.52;;;;;;;-2.98;78.10;100295.29;2031578;86;21096;-76
2022/01/21 00:10:32;;;;;;;5.67;2.55;;;;;;;-3.01;78.14;100293.31;2031358;86;21080;-75
2022/01/21 00:13:34;;;;;;;4.03;2.17;;;;;;;-3.06;78.08;100309.57;2011689;86;22006;-79
2022/01/21 00:16:38;;;;;;;10.30;2.83;;;;;;;-3.10;77.89;100306.72;2035001;86;21084;-75
2022/01/21 00:19:43;;;;;;;7.22;2.62;;;;;;;-3.17;77.77;100312.69;2033789;86;21147;-79
2022/01/21 00:32:50;;;;;;;6.65;2.35;;;;;;;-3.41;77.65;100327.23;2034177;86;21092;-77
2022/01/21 00:35:50;;;;;;;5.30;2.20;;;;;;;-3.46;77.64;100324.47;2035616;86;21067;-75
2022/01/21 00:38:54;;;;;;;6.22;2.40;;;;;;;-3.51;77.67;100328.57;2031764;86;21057;-75
2022/01/21 00:42:04;;;;;;;8.60;3.00;;;;;;;-3.52;77.78;100341.59;2033538;85;22435;-75
2022/01/21 00:45:00;;;;;;;4.63;2.20;;;;;;;-3.51;77.84;100338.11;1996501;87;21729;-74
2022/01/21 00:48:03;;;;;;;5.85;2.10;;;;;;;-3.48;77.92;100336.66;2022679;87;21138;-75
2022/01/21 00:51:06;;;;;;;6.60;2.65;;;;;;;-3.43;77.86;100333.41;2024794;87;21124;-78
2022/01/21 00:54:07;;;;;;;7.83;2.58;;;;;;;-3.41;77.65;100327.66;2023711;85;21048;-76
2022/01/21 00:57:09;;;;;;;5.28;2.30;;;;;;;-3.42;77.42;100326.83;2021651;87;21032;-80
2022/01/21 01:00:13;;;;;;;7.28;2.58;;;;;;;-3.44;77.32;100345.52;2036127;85;21608;-75
2022/01/21 01:03:15;;;;;;;8.40;2.12;;;;;;;-3.46;77.30;100351.72;2024124;87;21075;-75
2022/01/21 01:06:17;;;;;;;6.08;2.17;;;;;;;-3.51;77.18;100353.67;2022621;86;21574;-76
2022/01/21 01:09:18;;;;;;;5.00;2.33;;;;;;;-3.55;77.24;100365.09;2023020;87;21060;-75
2022/01/21 01:19:53;;;;;;;6.53;2.75;;;;;;;-3.59;77.22;100370.05;2024470;87;21544;-76
2022/01/21 01:22:10;;;;;;;5.47;2.55;;;;;;;-3.72;77.22;100375.78;2024498;87;21105;-76
2022/01/21 01:28:33;;;;;;;4.85;1.92;;;;;;;-3.78;77.19;100379.95;2021592;87;20999;-75
2022/01/21 01:31:35;;;;;;;6.53;2.37;;;;;;;-3.80;77.25;100390.00;2041276;85;21056;-75
2022/01/21 01:34:36;;;;;;;2.50;1.77;;;;;;;-3.82;77.34;100390.55;2023778;87;21724;-75
2022/01/21 01:40:57;;;;;;;5.40;2.05;;;;;;;-3.85;77.37;100382.45;2023265;85;21101;-75
2022/01/21 01:50:36;;;;;;;4.92;2.02;;;;;;;-3.86;77.41;100383.34;2018051;86;21039;-75
2022/01/21 01:53:48;;;;;;;7.15;2.67;;;;;;;-3.90;77.43;100386.99;2019105;86;21085;-75
2022/01/21 01:56:54;;;;;;;8.80;2.10;;;;;;;-3.92;77.40;100390.10;2015467;86;21004;-75
2022/01/21 01:59:55;;;;;;;9.15;2.52;;;;;;;-3.94;77.44;100380.24;2014942;86;21070;-76
2022/01/21 02:03:10;;;;;;;6.60;2.00;;;;;;;-3.96;77.45;100388.11;2014545;86;21506;-75
2022/01/21 02:06:12;;;;;;;5.53;1.92;;;;;;;-3.99;77.36;100386.11;2020488;86;21454;-75
2022/01/21 02:09:14;;;;;;;5.00;1.90;;;;;;;-4.02;77.41;100389.68;2004973;86;21062;-75
2022/01/21 02:12:17;;;;;;;9.25;2.62;;;;;;;-4.01;77.30;100386.16;2017663;86;21755;-78
2022/01/21 02:15:25;;;;;;;10.23;1.82;;;;;;;-4.05;77.15;100387.23;2019340;85;21521;-76
2022/01/21 02:21:48;;;;;;;5.60;2.12;;;;;;;-4.08;77.14;100395.97;2016774;86;21107;-75
2022/01/21 02:24:57;;;;;;;6.40;1.92;;;;;;;-4.10;77.11;100382.23;2021275;86;21498;-75
2022/01/21 02:27:58;;;;;;;5.05;2.00;;;;;;;-4.08;77.11;100394.67;2018967;85;21098;-75
2022/01/21 02:31:03;;;;;;;8.68;2.00;;;;;;;-4.11;76.99;100385.74;2043253;85;21540;-74
2022/01/21 02:34:08;;;;;;;6.67;2.10;;;;;;;-4.12;76.95;100384.50;2019601;86;21574;-76
2022/01/21 02:37:16;;;;;;;6.03;1.80;;;;;;;-4.16;76.94;100381.67;2019411;86;21014;-76
2022/01/21 02:40:19;;;;;;;3.12;1.55;;;;;;;-4.16;77.01;100384.26;2021003;86;21030;-78
2022/01/21 02:43:21;;;;;;;6.17;1.62;;;;;;;-4.15;76.93;100389.81;2001860;86;21106;-74
2022/01/21 02:46:26;;;;;;;3.45;1.50;;;;;;;-4.15;76.94;100379.45;1994403;86;21109;-75
2022/01/21 02:49:30;;;;;;;5.47;1.90;;;;;;;-4.16;76.84;100385.55;2002571;86;21641;-75
2022/01/21 02:52:40;;;;;;;5.90;1.75;;;;;;;-4.20;76.77;100386.13;2019865;86;21072;-75
2022/01/21 02:55:34;;;;;;;4.37;1.70;;;;;;;-4.21;76.80;100397.41;2018750;85;21495;-76
2022/01/21 02:58:36;;;;;;;6.35;1.72;;;;;;;-4.22;76.71;100400.92;2015060;86;21021;-75
2022/01/21 03:01:41;;;;;;;9.30;2.02;;;;;;;-4.22;76.75;100402.21;2016489;86;20993;-79
2022/01/21 03:04:59;;;;;;;7.92;2.15;;;;;;;-4.23;76.72;100399.21;2020726;86;21562;-76
2022/01/21 03:07:51;;;;;;;10.05;2.58;;;;;;;-4.21;76.74;100404.34;2019356;86;21040;-75
2022/01/21 03:10:52;;;;;;;6.20;2.25;;;;;;;-4.23;76.69;100405.69;2015486;85;21060;-76
2022/01/21 03:13:57;;;;;;;6.28;2.10;;;;;;;-4.24;76.57;100400.59;2012167;86;21579;-76
2022/01/21 03:16:59;;;;;;;9.13;2.30;;;;;;;-4.29;76.60;100409.38;2014946;86;20989;-75
2022/01/21 03:20:01;;;;;;;5.15;2.12;;;;;;;-4.29;76.62;100413.73;2017613;86;21505;-77
2022/01/21 03:23:03;;;;;;;5.05;1.90;;;;;;;-4.30;76.57;100412.06;2020227;86;21050;-75
2022/01/21 03:26:05;;;;;;;3.33;1.85;;;;;;;-4.33;76.61;100403.96;2019413;86;21571;-75
2022/01/21 03:29:17;;;;;;;6.40;2.12;;;;;;;-4.37;76.74;100404.98;2017489;86;21581;-75
2022/01/21 03:32:21;;;;;;;8.23;1.87;;;;;;;-4.37;76.92;100422.28;2015953;86;21039;-76
2022/01/21 03:35:24;;;;;;;4.58;1.95;;;;;;;-4.38;77.07;100425.78;2019649;86;21075;-75
2022/01/21 03:38:27;;;;;;;5.17;2.05;;;;;;;-4.36;77.13;100434.34;2019254;86;21876;-76
2022/01/21 03:41:29;;;;;;;4.05;2.05;;;;;;;-4.35;77.27;100436.02;2021195;86;21120;-75
2022/01/21 03:44:31;;;;;;;6.22;2.00;;;;;;;-4.34;77.28;100441.58;2020811;85;21580;-74
2022/01/21 03:47:32;;;;;;;6.97;1.90;;;;;;;-4.33;77.52;100452.35;2027915;85;21071;-75
2022/01/21 03:50:34;;;;;;;8.33;1.80;;;;;;;-4.29;77.66;100440.94;2019747;86;21076;-75
2022/01/21 03:53:35;;;;;;;4.45;1.80;;;;;;;-4.24;77.76;100442.05;2021465;86;21067;-76
2022/01/21 03:56:39;;;;;;;4.20;1.92;;;;;;;-4.21;77.60;100445.80;2023521;85;21563;-75
2022/01/21 03:59:40;;;;;;;5.95;1.80;;;;;;;-4.21;77.49;100445.34;2028164;86;21586;-76
2022/01/21 04:02:42;;;;;;;2.47;1.80;;;;;;;-4.17;77.72;100433.09;2024692;86;21034;-75
2022/01/21 04:05:46;;;;;;;8.25;1.87;;;;;;;-4.12;77.84;100444.11;2026102;86;21067;-75
2022/01/21 04:08:49;;;;;;;4.65;1.62;;;;;;;-4.06;78.04;100443.38;2019223;85;21106;-75
2022/01/21 04:11:51;;;;;;;5.10;2.08;;;;;;;-3.96;78.00;100448.19;2021075;85;21579;-75
2022/01/21 04:14:53;;;;;;;4.53;1.98;;;;;;;-3.91;78.10;100441.90;2023462;86;21124;-77
2022/01/21 04:17:54;;;;;;;5.97;2.20;;;;;;;-3.84;78.01;100435.98;2021263;85;21045;-76
2022/01/21 04:21:01;;;;;;;6.75;1.70;;;;;;;-3.78;78.04;100438.30;2025443;86;21610;-75
2022/01/21 04:24:04;;;;;;;12.93;2.33;;;;;;;-3.73;78.07;100433.75;2027151;86;21534;-79
2022/01/21 04:27:07;;;;;;;6.50;1.80;;;;;;;-3.69;78.05;100437.91;2019329;85;21617;-75
2022/01/21 04:30:10;;;;;;;7.72;1.70;;;;;;;-3.65;78.06;100436.02;2024041;86;21141;-75
2022/01/21 04:33:12;;;;;;;5.28;2.00;;;;;;;-3.63;78.06;100431.15;2023450;86;21090;-74
2022/01/21 04:36:16;;;;;;;5.05;1.75;;;;;;;-3.59;78.02;100433.60;2021851;86;21561;-77
2022/01/21 04:39:25;;;;;;;5.70;2.05;;;;;;;-3.56;77.91;100441.23;2019606;86;21080;-75
2022/01/21 04:48:45;;;;;;;9.05;1.92;;;;;;;-3.50;77.82;100440.95;2016605;86;21931;-79
2022/01/21 04:52:02;;;;;;;3.50;1.70;;;;;;;-3.47;77.67;100433.03;2012805;86;21090;-77
2022/01/21 04:54:50;;;;;;;4.85;2.20;;;;;;;-3.45;77.57;100441.59;2023352;85;21013;-76
2022/01/21 04:57:52;;;;;;;6.87;1.80;;;;;;;-3.43;77.57;100447.11;2041516;85;21107;-75
2022/01/21 05:00:53;;;;;;;5.72;1.98;;;;;;;-3.43;77.41;100435.89;2015821;85;21058;-77
2022/01/21 05:03:56;;;;;;;6.67;2.20;;;;;;;-3.43;77.40;100432.84;2017152;86;21069;-75
2022/01/21 05:06:58;;;;;;;6.53;2.05;;;;;;;-3.40;77.38;100442.23;2048134;85;21098;-77
2022/01/21 05:10:02;;;;;;;5.00;1.87;;;;;;;-3.41;77.25;100439.23;2048105;85;21016;-76
2022/01/21 05:13:05;;;;;;;7.37;1.95;;;;;;;-3.41;77.08;100428.86;2019298;86;21056;-76
2022/01/21 05:16:28;;;;;;;8.33;1.80;;;;;;;-3.43;76.92;100417.73;2017654;86;21941;-77
2022/01/21 05:19:16;;;;;;;6.33;2.17;;;;;;;-3.46;76.89;100426.95;2017533;85;21024;-76
2022/01/21 05:22:19;;;;;;;6.87;2.20;;;;;;;-3.52;76.69;100437.58;1974023;86;21099;-76
2022/01/21 05:25:32;;;;;;;6.20;1.90;;;;;;;-3.57;76.70;100440.41;2014925;86;21106;-77
2022/01/21 05:28:28;;;;;;;9.65;2.10;;;;;;;-3.57;76.77;100452.54;2016709;86;21121;-79
2022/01/21 05:31:40;;;;;;;4.08;1.65;;;;;;;-3.56;76.78;100447.73;2019792;85;21106;-78
2022/01/21 05:34:53;;;;;;;7.37;2.22;;;;;;;-3.54;76.75;100446.75;2022008;85;21053;-77
2022/01/21 05:37:56;;;;;;;6.00;2.10;;;;;;;-3.53;76.61;100443.23;2024347;85;21379;-78
2022/01/21 05:41:23;;;;;;;11.47;2.67;;;;;;;-3.53;76.37;100441.09;2015121;86;21032;-77
2022/01/21 05:47:36;;;;;;;6.87;2.67;;;;;;;-3.49;76.27;100447.82;2022757;85;21036;-76
2022/01/21 05:50:43;;;;;;;9.33;2.50;;;;;;;-3.45;76.30;100459.77;2012825;86;21598;-77
2022/01/21 05:53:55;;;;;;;7.83;2.55;;;;;;;-3.42;76.22;100454.43;2017067;85;21100;-77
2022/01/21 05:57:02;;;;;;;7.60;2.50;;;;;;;-3.39;76.20;100466.80;1999144;86;21061;-75
2022/01/21 06:00:08;;;;;;;4.62;1.98;;;;;;;-3.35;76.10;100454.55;2015605;86;21591;-76
2022/01/21 06:03:11;;;;;;;7.97;2.33;;;;;;;-3.31;75.96;100462.56;2019089;86;21417;-77
2022/01/21 06:06:13;;;;;;;7.30;2.50;;;;;;;-3.32;75.71;100437.54;2018483;86;21622;-76
2022/01/21 06:09:14;;;;;;;4.28;2.17;;;;;;;-3.32;75.55;100462.19;2015892;86;21068;-76
2022/01/21 06:12:18;;;;;;;12.65;2.80;;;;;;;-3.33;75.52;100457.06;2015070;86;21040;-77
2022/01/21 06:15:22;;;;;;;5.78;2.02;;;;;;;-3.32;75.25;100467.81;2003186;86;21539;-76
2022/01/21 06:18:23;;;;;;;10.13;3.05;;;;;;;-3.34;75.31;100461.41;2015116;86;21161;-79
2022/01/21 06:21:27;;;;;;;8.20;2.87;;;;;;;-3.35;75.31;100466.23;1996185;86;21034;-76
2022/01/21 06:24:31;;;;;;;6.05;2.30;;;;;;;-3.35;75.31;100474.45;2016547;86;21090;-76
2022/01/21 06:27:36;;;;;;;5.37;2.25;;;;;;;-3.40;75.10;100471.61;2021326;86;21040;-76
2022/01/21 06:30:37;;;;;;;7.10;2.30;;;;;;;-3.42;75.18;100464.34;2011079;86;21119;-76
2022/01/21 06:33:40;;;;;;;7.17;2.33;;;;;;;-3.42;75.11;100476.02;2013654;86;21069;-76
2022/01/21 06:36:42;;;;;;;8.43;2.10;;;;;;;-3.44;75.02;100478.30;2015589;86;21024;-77
2022/01/21 06:39:43;;;;;;;7.40;2.25;;;;;;;-3.42;75.22;100481.67;2040622;85;21114;-76
2022/01/21 06:42:45;;;;;;;5.30;2.22;;;;;;;-3.43;75.31;100489.92;2016947;86;21381;-77
2022/01/21 06:45:47;;;;;;;14.40;3.08;;;;;;;-3.42;75.38;100490.30;2026940;86;21074;-76
2022/01/21 06:48:48;;;;;;;7.87;2.55;;;;;;;-3.38;75.32;100489.69;2028310;86;21662;-77
2022/01/21 06:51:50;;;;;;;8.75;2.40;;;;;;;-3.34;75.44;100494.31;2028884;86;21062;-76
2022/01/21 06:54:51;;;;;;;8.78;2.62;;;;;;;-3.34;75.20;100491.25;2008542;86;21028;-78
2022/01/21 06:57:52;;;;;;;8.03;2.80;;;;;;;-3.31;75.18;100492.41;2028770;86;21011;-76
2022/01/21 07:00:53;;;;;;;5.35;2.15;;;;;;;-3.29;75.25;100502.28;1972476;89;21575;-77
2022/01/21 07:03:57;;;;;;;8.30;2.80;;;;;;;-3.26;75.17;100502.14;2015310;87;21845;-78
2022/01/21 07:06:58;;;;;;;8.33;2.37;;;;;;;-3.25;75.13;100502.52;2015243;87;21664;-80
2022/01/21 07:10:01;;;;;;;9.23;3.00;;;;;;;-3.24;74.80;100507.23;2025339;86;21053;-82
2022/01/21 07:13:03;;;;;;;6.10;2.37;;;;;;;-3.20;74.52;100503.61;2041839;86;21078;-78
2022/01/21 07:16:10;;;;;;;9.60;2.85;;;;;;;-3.12;74.99;100500.67;2021539;86;20983;-77
2022/01/21 07:19:11;;;;;;;12.75;3.17;;;;;;;-2.99;74.83;100498.71;2028854;86;21039;-76
2022/01/21 07:22:12;;;;;;;6.10;2.45;;;;;;;-2.84;74.87;100507.56;2051584;85;21170;-76
2022/01/21 07:25:14;;;;;;;9.68;2.60;;;;;;;-2.72;74.53;100501.78;2044624;86;21050;-78
2022/01/21 07:28:16;;;;;;;5.78;2.22;;;;;;;-2.66;74.42;100512.80;2066723;84;21054;-81
2022/01/21 07:31:21;;;;;;;11.53;2.55;;;;;;;-2.62;74.29;100510.42;2048079;86;21004;-75
2022/01/21 07:34:26;;;;;;;13.20;4.37;;;;;;;-2.63;74.18;100525.64;2046523;86;21596;-75
2022/01/21 07:37:27;;;;;;;7.37;2.45;;;;;;;-2.68;73.83;100522.41;2028678;86;21178;-80
2022/01/21 07:40:29;;;;;;;7.10;2.37;;;;;;;-2.68;74.10;100523.71;2029419;85;21621;-75
2022/01/21 07:43:30;;;;;;;11.50;2.65;;;;;;;-2.67;73.75;100518.92;2031475;86;21050;-75
2022/01/21 07:46:32;;;;;;;6.62;2.62;;;;;;;-2.63;73.67;100529.54;2011665;86;21569;-75
2022/01/21 07:49:33;;;;;;;10.13;2.90;;;;;;;-2.55;73.52;100524.82;2012443;86;21022;-76
2022/01/21 07:52:35;;;;;;;11.10;2.83;;;;;;;-2.42;73.55;100525.92;2013626;86;21023;-75
2022/01/21 07:55:36;;;;;;;9.00;3.12;;;;;;;-2.32;73.10;100529.74;2032880;85;21039;-76
2022/01/21 07:58:38;;;;;;;8.95;3.30;;;;;;;-2.19;73.18;100531.77;2037642;86;21018;-77
2022/01/21 08:01:45;;;;;;;9.33;3.10;;;;;;;-2.12;72.65;100531.83;2029921;86;21555;-75
2022/01/21 08:04:49;;;;;;;8.40;3.20;;;;;;;-1.99;72.43;100522.97;2034180;86;21078;-76
2022/01/21 08:07:52;;;;;;;8.78;3.00;;;;;;;-1.88;71.96;100539.72;2037711;85;21090;-77
2022/01/21 08:10:54;;;;;;;12.55;3.37;;;;;;;-1.83;72.08;100534.27;2034746;86;21035;-77
2022/01/21 08:13:58;;;;;;;11.33;3.47;;;;;;;-1.72;71.74;100533.26;2030157;86;21220;-75
2022/01/21 08:17:01;;;;;;;9.30;2.50;;;;;;;-1.55;70.99;100523.75;2030579;86;21087;-75
2022/01/21 08:20:04;;;;;;;8.88;3.40;;;;;;;-1.26;71.27;100532.66;2034527;86;21065;-75
2022/01/21 08:23:05;;;;;;;8.10;3.20;;;;;;;-1.22;70.45;100534.16;2040222;86;21443;-75
2022/01/21 08:26:08;;;;;;;14.60;7.67;;;;;;;-1.36;70.67;100538.33;2036363;85;21063;-77
2022/01/21 08:29:13;;;;;;;18.45;11.43;;;;;;;-1.54;70.31;100543.20;2032773;85;21567;-75
2022/01/21 08:32:18;;;;;;;15.60;9.03;;;;;;;-1.68;70.01;100545.21;2029248;86;22339;-75
2022/01/21 08:35:24;;;;;;;7.60;3.25;;;;;;;-1.57;69.92;100547.27;2035517;86;21102;-80
2022/01/21 08:38:25;;;;;;;8.18;2.75;;;;;;;-1.40;69.48;100550.30;2038263;86;21110;-75
2022/01/21 08:41:29;;;;;;;9.00;2.52;;;;;;;-1.54;69.83;100551.48;2032938;86;21070;-76
2022/01/21 08:44:30;;;;;;;6.37;2.40;;;;;;;-1.29;70.11;100541.47;2041240;86;21039;-75
2022/01/21 08:47:33;;;;;;;7.08;2.58;;;;;;;-0.85;69.57;100558.23;2034635;85;21052;-75
2022/01/21 08:50:38;;;;;;;9.33;2.80;;;;;;;-0.46;69.24;100562.56;2032562;86;21077;-75
2022/01/21 08:53:42;;;;;;;5.72;2.67;;;;;;;-0.38;67.79;100574.34;2031635;86;21059;-74
2022/01/21 08:56:45;;;;;;;6.72;2.40;;;;;;;-0.51;68.31;100574.17;2034778;86;21006;-74
2022/01/21 08:59:49;;;;;;;6.25;2.60;;;;;;;-0.68;67.27;100585.52;2031919;86;21873;-76
2022/01/21 09:02:51;;;;;;;9.60;3.10;;;;;;;-0.62;67.84;100580.00;2032480;86;21736;-75
2022/01/21 09:05:52;;;;;;;5.15;2.33;;;;;;;-0.49;67.55;100584.89;2031714;86;21053;-75
2022/01/21 09:08:54;;;;;;;6.70;2.65;;;;;;;-0.14;68.11;100592.97;2032898;86;21079;-76
2022/01/21 09:12:00;;;;;;;9.50;2.92;;;;;;;-0.03;67.27;100603.20;2027736;86;21057;-75
2022/01/21 09:15:00;;;;;;;8.93;3.08;;;;;;;-0.28;66.87;100596.38;2030518;86;21084;-77
2022/01/21 09:18:04;;;;;;;6.12;2.55;;;;;;;-0.50;67.12;100604.08;2035754;85;21140;-75
2022/01/21 09:21:06;;;;;;;6.40;2.50;;;;;;;-0.34;66.78;100605.39;2028990;86;21079;-75
2022/01/21 09:24:08;;;;;;;8.08;2.87;;;;;;;-0.47;66.61;100614.33;2036072;86;21070;-75
2022/01/21 09:27:10;;;;;;;8.48;2.62;;;;;;;-0.63;66.91;100608.27;2032908;86;21058;-75
2022/01/21 09:30:14;;;;;;;6.20;2.40;;;;;;;-0.75;66.71;100606.34;2034337;86;21067;-76
2022/01/21 09:33:15;;;;;;;9.98;2.65;;;;;;;-0.86;67.04;100613.89;2034755;86;21821;-74
2022/01/21 09:36:19;;;;;;;6.37;1.98;;;;;;;-0.97;66.99;100611.38;2034670;86;21122;-76
2022/01/21 09:39:20;;;;;;;7.42;2.08;;;;;;;-0.91;67.28;100604.53;2033151;85;20987;-74
2022/01/21 09:42:22;;;;;;;7.40;2.50;;;;;;;-0.67;66.54;100609.38;2059038;85;21594;-76
2022/01/21 09:45:25;;;;;;;5.58;2.30;;;;;;;-0.60;65.81;100604.66;2029852;86;21033;-76
2022/01/21 09:48:35;;;;;;;9.73;2.75;;;;;;;-0.70;66.04;100596.05;2015516;86;21102;-75
2022/01/21 09:51:37;;;;;;;3.87;1.87;;;;;;;-0.81;65.93;100598.86;2017010;86;21069;-75
2022/01/21 09:54:47;;;;;;;10.28;2.25;;;;;;;-0.81;65.82;100597.08;2013481;86;21379;-75
2022/01/21 09:57:51;;;;;;;12.80;3.65;;;;;;;-0.60;66.27;100591.16;2017839;85;21649;-76
2022/01/21 10:00:53;;;;;;;13.13;4.50;;;;;;;-0.59;64.87;100581.12;2017394;86;21021;-74
2022/01/21 10:03:55;;;;;;;5.05;2.42;;;;;;;-0.64;65.80;100585.75;2020890;86;21069;-75
2022/01/21 10:06:57;;;;;;;6.00;2.37;;;;;;;-0.56;65.75;100583.56;2015924;86;21031;-76
2022/01/21 10:10:06;;;;;;;6.10;2.50;;;;;;;-0.61;65.07;100580.36;2017885;86;21060;-75
2022/01/21 10:13:03;;;;;;;5.03;2.30;;;;;;;-0.38;65.12;100573.88;2021236;85;21086;-75
2022/01/21 10:16:08;;;;;;;7.85;2.60;;;;;;;-0.25;64.31;100563.61;2019815;86;21064;-75
2022/01/21 10:19:12;;;;;;;7.67;2.90;;;;;;;-0.23;64.63;100564.34;2017924;86;21093;-75
2022/01/21 10:22:19;;;;;;;6.97;2.50;;;;;;;-0.13;64.62;100575.11;2017318;86;21478;-76
2022/01/21 10:25:21;;;;;;;8.43;2.47;;;;;;;-0.29;64.79;100584.25;2017034;86;22238;-76
2022/01/21 10:28:24;;;;;;;7.33;3.00;;;;;;;-0.53;64.49;100588.61;2015313;86;21613;-76
2022/01/21 10:31:28;;;;;;;7.35;2.98;;;;;;;-0.67;64.82;100574.19;2019605;86;21082;-75
2022/01/21 10:34:38;;;;;;;8.88;3.00;;;;;;;-0.91;64.51;100577.18;2012438;86;21126;-75
2022/01/21 10:37:39;;;;;;;6.42;2.47;;;;;;;-1.04;65.67;100589.20;1999585;86;21047;-75
2022/01/21 10:40:41;;;;;;;6.20;2.80;;;;;;;-1.12;65.21;100581.41;2014404;86;21074;-75
2022/01/21 10:43:45;;;;;;;7.92;2.67;;;;;;;-1.24;65.83;100590.25;2019157;86;21131;-76
2022/01/21 10:47:11;;;;;;;13.43;2.80;;;;;;;-1.26;66.03;100583.44;1998505;87;21830;-76
2022/01/21 10:50:18;;;;;;;6.10;2.80;;;;;;;-1.24;66.01;100589.37;2014048;87;21074;-76
2022/01/21 10:53:27;;;;;;;7.53;2.70;;;;;;;-1.25;66.35;100590.31;2012930;87;21096;-75
2022/01/21 10:56:29;;;;;;;8.18;2.87;;;;;;;-1.26;66.31;100596.45;2013756;87;21743;-78
2022/01/21 11:00:03;;;;;;;7.10;2.30;;;;;;;-1.26;66.32;100587.34;2013220;87;21088;-74
2022/01/21 11:03:15;;;;;;;8.68;2.83;;;;;;;-1.27;66.24;100582.56;2010920;87;21515;-76
2022/01/21 11:06:22;;;;;;;6.65;2.40;;;;;;;-1.28;66.50;100578.75;2013814;87;21569;-76
2022/01/21 11:09:24;;;;;;;6.08;2.35;;;;;;;-1.27;66.17;100572.62;2012424;87;21024;-76
2022/01/21 11:12:31;;;;;;;7.35;3.05;;;;;;;-1.23;66.39;100576.30;1991085;87;21998;-76
2022/01/21 11:16:08;;;;;;;8.95;2.52;;;;;;;-1.16;66.34;100575.50;2012883;87;21051;-77
2022/01/21 11:19:16;;;;;;;7.40;2.85;;;;;;;-1.10;66.70;100569.95;2013122;87;21087;-75
2022/01/21 11:22:17;;;;;;;5.70;2.70;;;;;;;-1.01;66.27;100569.50;2010835;87;21062;-77
2022/01/21 11:25:21;;;;;;;8.80;3.02;;;;;;;-0.98;66.19;100571.94;2016011;87;21034;-76
2022/01/21 11:28:49;;;;;;;8.93;2.98;;;;;;;-0.97;66.44;100567.09;2012484;87;21060;-77
2022/01/21 11:31:50;;;;;;;5.85;2.45;;;;;;;-0.98;66.23;100573.23;2002042;87;21044;-76
2022/01/21 11:34:55;;;;;;;6.72;2.87;;;;;;;-0.70;66.34;100577.80;2014008;87;21502;-77
2022/01/21 11:37:57;;;;;;;8.78;2.80;;;;;;;-0.34;66.32;100567.58;2016004;87;21540;-79
2022/01/21 11:41:00;;;;;;;7.50;2.80;;;;;;;-0.32;65.56;100553.97;2011319;87;21004;-75
2022/01/21 11:44:04;;;;;;;7.65;2.83;;;;;;;-0.33;65.82;100560.12;2012601;87;21055;-76
2022/01/21 11:50:13;;;;;;;9.03;2.77;;;;;;;-0.36;64.82;100552.47;2013486;86;21089;-76
2022/01/21 11:53:46;;;;;;;7.17;2.83;;;;;;;-0.44;65.52;100551.22;2042738;85;21007;-76
2022/01/21 11:57:02;;;;;;;6.85;3.12;;;;;;;-0.46;65.64;100546.91;2013743;86;21106;-76
2022/01/21 12:00:07;;;;;;;7.87;2.80;;;;;;;-0.45;66.00;100550.39;2017055;86;21572;-77
2022/01/21 12:03:10;;;;;;;8.70;3.50;;;;;;;-0.43;65.91;100545.07;2014670;86;21036;-77
2022/01/21 12:06:33;;;;;;;12.65;3.90;;;;;;;-0.47;65.92;100541.80;2016379;86;21525;-80
2022/01/21 12:09:58;;;;;;;8.40;3.62;;;;;;;-0.57;65.32;100540.16;2011343;86;21040;-77
2022/01/21 12:13:13;;;;;;;8.95;3.05;;;;;;;-0.68;65.33;100512.55;2015673;86;20987;-78
2022/01/21 12:16:25;;;;;;;8.10;2.80;;;;;;;-0.78;65.49;100515.30;2014773;86;21605;-76
2022/01/21 12:19:34;;;;;;;8.28;3.30;;;;;;;-0.83;65.72;100512.10;2018701;86;21035;-77
2022/01/21 12:22:36;;;;;;;7.62;2.83;;;;;;;-0.83;65.63;100505.13;2013949;86;21098;-76
2022/01/21 12:26:17;;;;;;;15.88;3.77;;;;;;;-0.83;66.05;100506.42;1998622;86;21073;-77
2022/01/21 12:29:22;;;;;;;8.45;3.70;;;;;;;-0.84;65.94;100502.62;1980846;88;22334;-79
2022/01/21 12:32:37;;;;;;;7.70;3.05;;;;;;;-0.85;65.89;100497.01;2013421;86;21015;-76
2022/01/21 12:35:56;;;;;;;8.70;3.35;;;;;;;-0.83;66.19;100501.68;2016970;86;21094;-76
2022/01/21 12:41:54;;;;;;;9.78;3.33;;;;;;;-0.86;66.12;100496.64;2021214;86;21103;-77
2022/01/21 12:45:10;;;;;;;9.08;3.17;;;;;;;-0.95;65.57;100498.82;2015438;86;21582;-76
2022/01/21 12:48:35;;;;;;;7.83;3.52;;;;;;;-1.01;66.14;100495.73;2014481;85;21042;-76
2022/01/21 12:52:08;;;;;;;10.30;3.77;;;;;;;-1.03;66.30;100507.98;2001317;86;21058;-77
2022/01/21 12:58:11;;;;;;;7.40;3.25;;;;;;;-0.83;66.45;100492.56;2013590;86;21083;-76
2022/01/21 13:01:14;;;;;;;7.92;2.47;;;;;;;-0.75;66.38;100503.41;2015569;86;21075;-76
2022/01/21 13:04:36;;;;;;;4.87;2.50;;;;;;;-0.61;65.89;100497.42;2014373;86;22184;-78
2022/01/21 13:07:50;;;;;;;6.90;2.75;;;;;;;-0.50;65.74;100494.59;2014652;86;21012;-76
2022/01/21 13:10:53;;;;;;;4.83;2.47;;;;;;;-0.47;65.28;100490.50;2012926;86;21086;-76
2022/01/21 13:14:34;;;;;;;10.08;3.05;;;;;;;-0.45;65.70;100490.42;2022257;86;21574;-77
2022/01/21 13:17:30;;;;;;;8.08;2.58;;;;;;;-0.48;65.78;100494.04;2014535;86;22407;-78
2022/01/21 13:20:35;;;;;;;8.48;3.00;;;;;;;-0.52;65.51;100487.30;2016723;86;21012;-76
2022/01/21 13:23:50;;;;;;;10.72;3.52;;;;;;;-0.58;65.41;100487.66;2015989;86;21074;-76
2022/01/21 13:26:48;;;;;;;8.35;3.15;;;;;;;-0.61;65.75;100494.34;2023693;86;21079;-76
2022/01/21 13:29:47;;;;;;;9.05;3.37;;;;;;;-0.61;65.79;100496.12;2012884;86;21051;-79
2022/01/21 13:33:10;;;;;;;12.18;3.40;;;;;;;-0.60;65.77;100493.88;2012926;86;21071;-76
2022/01/21 13:36:12;;;;;;;10.90;3.67;;;;;;;-0.61;65.52;100485.23;2018709;86;20946;-78
2022/01/21 13:39:19;;;;;;;9.45;3.80;;;;;;;-0.63;65.85;100482.33;2016086;86;21042;-76
2022/01/21 13:42:24;;;;;;;9.48;3.55;;;;;;;-0.64;65.76;100484.09;2014664;86;21513;-76
2022/01/21 13:45:27;;;;;;;12.68;4.05;;;;;;;-0.63;65.44;100484.46;2017832;86;21075;-75
2022/01/21 13:48:32;;;;;;;9.68;3.80;;;;;;;-0.61;65.67;100485.70;2009951;86;21142;-75
2022/01/21 13:51:34;;;;;;;10.75;4.25;;;;;;;-0.62;65.55;100484.00;2017050;86;21058;-76
2022/01/21 13:54:45;;;;;;;12.90;4.10;;;;;;;-0.63;65.74;100475.81;2022648;86;21777;-75
2022/01/21 13:57:47;;;;;;;13.00;5.00;;;;;;;-0.65;65.69;100483.70;2015547;86;21053;-76
2022/01/21 14:00:56;;;;;;;10.08;4.35;;;;;;;-0.64;65.56;100491.92;2013272;86;21082;-75
2022/01/21 14:04:03;;;;;;;;;;;;;;;-0.63;65.33;100490.14;2019433;86;21115;-75
2022/01/21 14:07:29;;;;;;;8.88;3.62;;;;;;;-0.61;65.31;100499.56;2016645;86;20191;-76
2022/01/21 14:10:31;;;;;;;7.90;2.98;;;;;;;-0.63;65.14;100492.28;2013282;86;21054;-75
2022/01/21 14:13:36;;;;;;;8.20;2.67;;;;;;;-0.64;64.92;100493.22;2013802;86;21066;-78
2022/01/21 14:16:53;;;;;;;9.23;3.22;;;;;;;-0.65;65.16;100496.73;1999344;86;21747;-76
2022/01/21 14:19:54;;;;;;;7.97;2.90;;;;;;;-0.67;65.27;100481.67;2010766;86;21098;-75
2022/01/21 14:22:55;;;;;;;8.83;2.98;;;;;;;-0.69;65.34;100496.08;2011530;86;21027;-75
2022/01/21 14:25:57;;;;;;;5.42;2.35;;;;;;;-0.74;65.30;100498.55;2008034;85;21082;-75
2022/01/21 14:28:59;;;;;;;5.47;3.08;;;;;;;-0.76;65.36;100490.84;2015846;85;21022;-76
2022/01/21 14:32:15;;;;;;;6.67;2.83;;;;;;;-0.78;65.48;100485.34;2015525;86;21063;-75
2022/01/21 14:35:30;;;;;;;12.23;3.42;;;;;;;-0.81;65.66;100486.81;2018502;85;21719;-78
2022/01/21 14:38:32;;;;;;;8.78;4.08;;;;;;;-0.79;66.01;100491.45;2016500;86;21129;-75
2022/01/21 14:41:40;;;;;;;7.87;3.60;;;;;;;-0.75;66.03;100487.77;2008270;86;22250;-79
2022/01/21 14:44:48;;;;;;;10.00;3.12;;;;;;;-0.75;65.53;100494.28;2012037;86;21058;-68
2022/01/21 14:47:50;;;;;;;12.03;3.55;;;;;;;-0.76;65.84;100491.28;2019003;86;21057;-75
2022/01/21 14:50:53;;;;;;;6.62;3.20;;;;;;;-0.79;65.60;100484.94;2021634;86;20983;-74
2022/01/21 14:54:15;;;;;;;8.65;3.33;;;;;;;-0.84;65.96;100499.55;2022887;86;21003;-75
2022/01/21 14:57:17;;;;;;;11.78;3.20;;;;;;;-0.86;65.97;100500.55;2020501;86;21039;-75
2022/01/21 15:00:34;;;;;;;9.38;3.00;;;;;;;-0.88;66.11;100514.95;2021695;86;22308;-76
2022/01/21 15:03:39;;;;;;;8.00;3.00;;;;;;;-0.91;65.75;100506.84;2018866;86;21082;-76
2022/01/21 15:06:40;;;;;;;8.68;2.95;;;;;;;-0.94;65.97;100512.22;2023900;86;21061;-75
2022/01/21 15:09:48;;;;;;;6.65;3.00;;;;;;;-0.95;65.96;100520.13;2021265;86;21039;-77
2022/01/21 15:16:15;;;;;;;12.10;3.90;;;;;;;-0.96;66.15;100523.64;2028274;86;21108;-75